METAR Data
IDs: Format: Raw Decoded Include TAF

Data at: 2141 UTC 18 Apr 2021

KPIE 182053Z 20014KT 10SM FEW026 28/22 A2985 RMK AO2 SLP107 T02830217 57015
KPIE 181953Z AUTO 19014G22KT 10SM FEW023 28/23 A2986 RMK AO2 SLP111 T02830228
KPIE 181853Z AUTO 20019G24KT 10SM SCT028 30/22 A2988 RMK AO2 SLP117 T03000222
KPIE 181753Z 21017G21KT 10SM SCT028 29/22 A2989 RMK AO2 SLP121 T02940222 10300 20244 58012
KPIE 181653Z 21013G20KT 10SM SCT020 29/23 A2990 RMK AO2 SLP124 T02940228
KPIE 181553Z 20016G23KT 10SM CLR 29/23 A2992 RMK AO2 SLP131 T02890233
KPIE 181453Z 21016KT 10SM SCT014 28/23 A2993 RMK AO2 SLP133 T02780233 50004
KPIE 181353Z 22012KT 10SM SCT012 27/23 A2993 RMK AO2 SLP134 T02720233
KPIE 181253Z 22008KT 10SM CLR 26/24 A2992 RMK AO2 SLP133 T02560239
KPIE 181153Z 20007KT 9SM CLR 24/23 A2991 RMK AO2 SLP129 T02440233 10244 20233 53010
KPIE 181127Z 20006KT 9SM FEW008 24/23 A2991 RMK AO2 T02440233
KPIE 181053Z 21007KT 10SM BKN006 BKN034 24/23 A2991 RMK AO2 SLP127 T02390233
KPIE 181031Z COR 20006KT 10SM BKN005 OVC037 24/23 A2990 RMK AO2 T02390233
KPIE 181019Z 21005KT 10SM SCT009 OVC037 24/23 A2990 RMK AO2 T02390233
KPIE 180953Z 20005KT 10SM FEW036 24/23 A2989 RMK AO2 SLP120 T02390228
KPIE 180853Z AUTO 22007KT 10SM SCT027 24/23 A2988 RMK AO2 SLP119 T02440233 56003
KPIE 180848Z AUTO 22006KT 10SM SCT027 SCT090 24/23 A2988 RMK AO2
KPIE 180818Z AUTO 23006KT 10SM SCT008 BKN026 24/23 A2988 RMK AO2 T02390233
KPIE 180809Z AUTO 23007KT 10SM BKN009 BKN026 24/23 A2989 RMK AO2 T02440233
KPIE 180753Z AUTO 22007KT 10SM SCT007 BKN025 24/23 A2988 RMK AO2 SLP119 T02440233
KPIE 180700Z AUTO 22008KT 10SM FEW008 FEW026 24/23 A2989 RMK AO2 T02440233
KPIE 180653Z AUTO 22007KT 10SM FEW028 24/23 A2989 RMK AO2 SLP122 T02440233
KPIE 180622Z AUTO 22005KT 9SM FEW008 BKN025 BKN065 24/23 A2990 RMK AO2 T02440233
KPIE 180553Z AUTO 22006KT 9SM > BKN032 BKN040 BKN050 24/24 A2991 RMK AO2 SLP128 T02440239 10256 20244 50005
KPIE 180453Z AUTO 21006KT 8SM FEW030 SCT038 24/23 A2991 RMK AO2 SLP129 T02440233 402890233
KPIE 180441Z AUTO 21007KT 8SM BKN033 24/24 A2991 RMK AO2 T02440239
KPIE 180353Z AUTO 21008KT 8SM BKN029 BKN035 24/23 A2991 RMK AO2 SLP127 T02440233
KPIE 180315Z AUTO 23008KT 7SM SCT009 BKN030 24/23 A2990 RMK AO2 T02440233
KPIE 180308Z AUTO 22009KT 7SM BKN009 BKN030 24/23 A2990 RMK AO2 T02440233
KPIE 180253Z AUTO 22007KT 8SM BKN010 OVC028 24/23 A2989 RMK AO2 SLP122 T02440233 53009
KPIE 180237Z AUTO 21007KT 8SM OVC010 25/23 A2989 RMK AO2 T02500233
KPIE 180212Z 22006KT 8SM BKN009 BKN027 24/23 A2989 RMK AO2 T02440233
KPIE 180200Z 22007KT 8SM FEW008 FEW027 24/23 A2988 RMK AO2 T02440233
KPIE 180153Z 21006KT 8SM FEW010 FEW026 24/23 A2988 RMK AO2 SLP117 T02440233
KPIE 180053Z 21008KT 10SM CLR 25/23 A2987 RMK AO2 SLP114 T02500233
KPIE 172353Z 21009KT 10SM CLR 26/23 A2987 RMK AO2 SLP113 T02560228 10289 20256 53004
KPIE 172253Z 21011KT 10SM SCT017 SCT025 SCT046 26/23 A2986 RMK AO2 SLP111 T02610228
KPIE 172153Z 21012KT 10SM FEW017 SCT022 BKN047 27/23 A2986 RMK AO2 SLP110 T02670228
KPIE 172148Z 21013KT 10SM SCT022 BKN032 BKN047 27/23 A2985 RMK AO2
KPIE 172053Z 25012KT 10SM BKN023 BKN042 28/22 A2985 RMK AO2 SLP106 T02780222 56015
KPIE 171953Z 21011KT 10SM BKN021 BKN027 BKN041 28/23 A2985 RMK AO2 SLP108 T02830228
KPIE 171917Z 23013G18KT 10SM FEW021 BKN028 BKN037 28/22 A2986 RMK AO2 T02780222
KPIE 171853Z 22012KT 10SM SCT021 BKN034 28/23 A2987 RMK AO2 SLP114 T02830228
KPIE 171840Z 21014KT 10SM SCT023 SCT030 BKN038 28/22 A2987 RMK AO2 T02830222
KPIE 171753Z 22012KT 10SM SCT021 BKN028 BKN040 28/23 A2989 RMK AO2 SLP121 T02780228 10289 20244 58008
KPIE 171700Z 24011KT 10SM SCT023 SCT028 BKN034 28/22 A2990 RMK AO2 T02830222
KPIE 171653Z 23012KT 10SM BKN021 BKN027 28/22 A2990 RMK AO2 SLP123 T02830222
KPIE 171553Z 25012KT 10SM BKN021 BKN027 27/22 A2992 RMK AO2 SLP132 T02720222
KPIE 171532Z 23012KT 10SM SCT019 BKN042 BKN050 28/22 A2992 RMK AO2 T02780222
KPIE 171507Z 24011KT 10SM SCT017 BKN026 BKN044 27/22 A2992 RMK AO2 T02670222
KPIE 171453Z 22011KT 10SM SCT016 BKN055 27/23 A2991 RMK AO2 SLP129 T02670228 53013
KPIE 171353Z 22009KT 10SM FEW011 25/23 A2989 RMK AO2 SLP122 T02500228
KPIE 171253Z 21009KT 8SM FEW012 24/23 A2988 RMK AO2 SLP118 T02440228
KPIE 171232Z 21009KT 8SM FEW009 24/23 A2988 RMK AO2 T02440228
KPIE 171225Z 21008KT 7SM BKN009 24/23 A2988 RMK AO2 T02440233
KPIE 171200Z 22010KT 7SM BKN010 OVC014 24/23 A2988 RMK AO2 T02440228
KPIE 171153Z 23010KT 7SM BKN009 24/23 A2987 RMK AO2 SLP116 T02440228 10244 20233 53013
KPIE 171137Z 22009KT 6SM BR BKN011 23/23 A2986 RMK AO2 T02330228
KPIE 171053Z 21010KT 6SM BR BKN009 BKN015 24/23 A2984 RMK AO2 SLP105 T02390228
KPIE 170953Z 21009KT 5SM BR BKN009 24/23 A2984 RMK AO2 CIG 008V012 SLP103 T02390228
KPIE 170949Z 21009KT 5SM BR BKN009 24/23 A2984 RMK AO2 CIG 008V012